createdAt,value
2022-07-29T00:00:01.006Z,98.60
2022-07-29T00:02:29.225Z,98.10
2022-07-29T00:04:57.831Z,97.30
2022-07-29T00:07:25.535Z,97.00
2022-07-29T00:09:54.325Z,97.20
2022-07-29T00:12:26.043Z,96.90
2022-07-29T00:14:58.113Z,97.40
2022-07-29T00:17:26.222Z,97.60
2022-07-29T00:19:53.953Z,97.20
2022-07-29T00:22:22.924Z,97.50
2022-07-29T00:24:50.947Z,97.10
2022-07-29T00:27:19.376Z,96.70
2022-07-29T00:29:47.132Z,96.50
2022-07-29T00:32:15.250Z,96.40
2022-07-29T00:34:56.073Z,96.00
2022-07-29T00:37:29.852Z,96.10
2022-07-29T00:39:57.913Z,96.00
2022-07-29T00:42:26.073Z,95.90
2022-07-29T00:44:53.931Z,96.00
2022-07-29T00:47:21.635Z,96.10
2022-07-29T00:49:50.515Z,95.90
2022-07-29T00:52:19.113Z,96.10
2022-07-29T00:54:46.811Z,96.60
2022-07-29T00:57:18.376Z,96.10
2022-07-29T00:59:46.101Z,95.90
2022-07-29T01:02:13.830Z,96.00
2022-07-29T01:04:42.422Z,96.00
2022-07-29T01:07:11.443Z,95.80
2022-07-29T01:09:43.060Z,95.80
2022-07-29T01:12:17.918Z,95.70
2022-07-29T01:14:46.593Z,96.10
2022-07-29T01:17:18.024Z,95.70
2022-07-29T01:19:58.592Z,95.70
2022-07-29T01:22:38.792Z,95.60
2022-07-29T01:25:19.727Z,95.50
2022-07-29T01:28:00.741Z,95.60
2022-07-29T01:30:31.083Z,95.70
2022-07-29T01:33:01.815Z,95.80
2022-07-29T01:35:39.115Z,95.80
2022-07-29T01:38:26.005Z,95.70
2022-07-29T01:41:07.387Z,95.60
2022-07-29T01:43:53.859Z,95.80
2022-07-29T01:46:23.451Z,95.70
2022-07-29T01:48:54.643Z,95.80
2022-07-29T01:51:23.888Z,95.70
2022-07-29T01:54:00.155Z,95.60
2022-07-29T01:56:31.164Z,95.30
2022-07-29T01:59:00.613Z,95.30
2022-07-29T02:01:30.234Z,95.10
2022-07-29T02:03:59.731Z,95.10
2022-07-29T02:06:29.934Z,95.00
2022-07-29T02:08:59.504Z,94.90
2022-07-29T02:11:30.075Z,94.90
2022-07-29T02:13:58.602Z,94.90
2022-07-29T02:16:28.438Z,94.80
2022-07-29T02:18:58.163Z,94.60
2022-07-29T02:21:27.383Z,94.50
2022-07-29T02:23:56.828Z,94.40
2022-07-29T02:26:31.158Z,94.30
2022-07-29T02:29:02.510Z,94.30
2022-07-29T02:31:34.685Z,94.10
2022-07-29T02:34:04.053Z,93.90
2022-07-29T02:36:33.647Z,94.00
2022-07-29T02:39:03.159Z,93.90
2022-07-29T02:41:33.450Z,93.80
2022-07-29T02:44:11.406Z,93.80
2022-07-29T02:46:43.594Z,93.80
2022-07-29T02:49:25.917Z,93.60
2022-07-29T02:51:56.991Z,93.50
2022-07-29T02:54:37.560Z,93.40
2022-07-29T02:57:11.449Z,93.30
2022-07-29T02:59:42.656Z,93.30
2022-07-29T03:02:11.810Z,93.20
2022-07-29T03:04:44.705Z,93.00
2022-07-29T03:07:15.812Z,93.00
2022-07-29T03:09:45.067Z,93.10
2022-07-29T03:12:13.378Z,92.90
2022-07-29T03:14:42.865Z,92.90
2022-07-29T03:17:11.212Z,92.50
2022-07-29T03:19:40.901Z,92.40
2022-07-29T03:22:08.950Z,92.60
2022-07-29T03:24:38.873Z,92.60
2022-07-29T03:27:09.763Z,92.70
2022-07-29T03:29:40.081Z,92.70
2022-07-29T03:32:11.656Z,92.20
2022-07-29T03:34:39.654Z,92.40
2022-07-29T03:37:07.865Z,92.40
2022-07-29T03:39:38.423Z,92.40
2022-07-29T03:42:11.065Z,92.40
2022-07-29T03:44:39.610Z,91.90
2022-07-29T03:47:13.236Z,91.10
2022-07-29T03:49:54.960Z,91.40
2022-07-29T03:52:27.595Z,91.00
2022-07-29T03:54:58.801Z,90.90
2022-07-29T03:57:33.386Z,91.70
2022-07-29T04:00:13.975Z,91.50
2022-07-29T04:02:42.120Z,91.00
2022-07-29T04:05:13.679Z,91.60
2022-07-29T04:07:49.217Z,90.70
2022-07-29T04:10:29.397Z,91.40
2022-07-29T04:13:02.969Z,90.90
2022-07-29T04:15:31.960Z,90.70
2022-07-29T04:18:01.084Z,90.70
2022-07-29T04:20:29.906Z,91.20
2022-07-29T04:23:00.247Z,90.90
2022-07-29T04:25:29.784Z,90.30
2022-07-29T04:28:04.869Z,90.10
2022-07-29T04:30:33.415Z,89.00
2022-07-29T04:33:15.018Z,89.00
2022-07-29T04:35:50.581Z,90.40
2022-07-29T04:38:20.814Z,89.20
2022-07-29T04:40:50.406Z,90.10
2022-07-29T04:43:26.223Z,89.60
2022-07-29T04:45:55.349Z,90.60
2022-07-29T04:48:28.766Z,90.60
2022-07-29T04:50:57.488Z,90.40
2022-07-29T04:53:26.293Z,88.70
2022-07-29T04:55:54.245Z,90.30
2022-07-29T04:58:29.502Z,90.00
2022-07-29T05:00:58.822Z,90.20
2022-07-29T05:03:27.807Z,89.80
2022-07-29T05:05:56.004Z,89.40
2022-07-29T05:08:24.265Z,89.40
2022-07-29T05:10:55.280Z,89.30
2022-07-29T05:13:23.261Z,88.20
2022-07-29T05:15:55.530Z,89.40
2022-07-29T05:18:25.996Z,89.40
2022-07-29T05:20:54.286Z,89.30
2022-07-29T05:23:23.959Z,90.10
2022-07-29T05:25:52.030Z,87.70
2022-07-29T05:28:21.054Z,86.50
2022-07-29T05:30:49.680Z,85.00
2022-07-29T05:33:34.867Z,85.80
2022-07-29T05:36:08.241Z,86.90
2022-07-29T05:38:37.310Z,88.10
2022-07-29T05:41:13.095Z,86.70
2022-07-29T05:43:42.483Z,87.60
2022-07-29T05:46:16.290Z,87.90
2022-07-29T05:48:45.814Z,88.10
2022-07-29T05:51:27.822Z,86.60
2022-07-29T05:53:56.851Z,86.90
2022-07-29T05:56:25.746Z,87.50
2022-07-29T05:58:55.058Z,89.30
2022-07-29T06:01:26.105Z,89.30
2022-07-29T06:03:55.796Z,90.00
2022-07-29T06:06:24.088Z,90.40
2022-07-29T06:09:12.736Z,90.40
2022-07-29T06:11:52.134Z,90.30
2022-07-29T06:46:06.138Z,92.70
2022-07-29T06:48:34.984Z,92.70
2022-07-29T06:51:03.150Z,92.70
2022-07-29T06:53:59.631Z,92.80
2022-07-29T06:56:39.625Z,92.80
2022-07-29T06:59:15.811Z,92.70
2022-07-29T07:01:44.853Z,92.70
2022-07-29T07:04:13.536Z,92.80
2022-07-29T07:06:43.604Z,92.80
2022-07-29T07:09:11.509Z,92.90
2022-07-29T07:11:41.087Z,92.90
2022-07-29T07:14:17.210Z,92.50
2022-07-29T07:16:46.245Z,92.40
2022-07-29T07:19:14.257Z,92.00
2022-07-29T07:21:42.603Z,91.90
2022-07-29T07:24:11.415Z,91.70
2022-07-29T07:26:41.116Z,91.50
2022-07-29T07:29:15.425Z,91.20
2022-07-29T07:31:43.840Z,91.30
2022-07-29T07:34:17.845Z,91.10
2022-07-29T07:36:56.254Z,89.50
2022-07-29T07:39:24.962Z,89.20
2022-07-29T07:41:55.963Z,89.00
2022-07-29T07:44:24.175Z,90.00
2022-07-29T07:46:53.461Z,90.00
2022-07-29T07:49:24.603Z,89.10
2022-07-29T07:51:54.599Z,87.10
2022-07-29T07:54:22.885Z,87.80
2022-07-29T07:56:53.565Z,88.50
2022-07-29T07:59:22.510Z,85.90
2022-07-29T08:01:56.128Z,85.70
2022-07-29T08:04:28.140Z,86.50
2022-07-29T08:06:59.386Z,86.80
2022-07-29T08:09:31.767Z,87.00
2022-07-29T08:12:00.671Z,86.50
2022-07-29T08:14:28.661Z,86.50
2022-07-29T08:17:01.568Z,85.50
2022-07-29T08:19:29.707Z,87.10
2022-07-29T08:21:57.599Z,87.30
2022-07-29T08:24:37.953Z,86.50
2022-07-29T08:27:16.570Z,87.50
2022-07-29T08:29:58.617Z,85.00
2022-07-29T08:32:43.745Z,84.30
2022-07-29T08:35:14.480Z,86.40
2022-07-29T08:37:43.602Z,85.40
2022-07-29T08:40:12.894Z,84.80
2022-07-29T08:42:41.026Z,84.80
2022-07-29T08:45:09.124Z,84.70
2022-07-29T08:47:43.854Z,83.60
2022-07-29T08:50:12.005Z,84.10
2022-07-29T08:52:43.826Z,84.40
2022-07-29T08:55:12.453Z,85.80
2022-07-29T08:57:43.418Z,84.80
2022-07-29T09:00:20.922Z,83.70
2022-07-29T09:02:53.066Z,84.10
2022-07-29T09:05:28.821Z,84.10
2022-07-29T09:07:57.516Z,84.80
2022-07-29T09:10:25.646Z,85.10
2022-07-29T09:12:54.806Z,83.50
2022-07-29T09:15:22.919Z,84.20
2022-07-29T09:17:55.991Z,83.30
2022-07-29T09:20:25.452Z,83.70
2022-07-29T09:22:57.408Z,81.00
2022-07-29T09:25:36.250Z,82.20
2022-07-29T09:28:11.142Z,84.10
2022-07-29T09:30:53.193Z,83.10
2022-07-29T09:33:22.095Z,82.80
2022-07-29T09:36:02.209Z,83.50
2022-07-29T09:38:32.927Z,84.00
2022-07-29T09:41:05.453Z,85.20
2022-07-29T09:43:34.297Z,85.30
2022-07-29T09:46:14.446Z,84.70
2022-07-29T09:48:42.355Z,85.90
2022-07-29T09:51:24.110Z,85.10
2022-07-29T09:53:56.481Z,84.80
2022-07-29T09:56:37.395Z,85.70
2022-07-29T09:59:10.393Z,83.60
2022-07-29T10:01:38.381Z,81.20
2022-07-29T10:04:06.219Z,82.50
2022-07-29T10:06:34.251Z,83.20
2022-07-29T10:09:13.467Z,83.70
2022-07-29T10:11:49.131Z,84.60
2022-07-29T10:14:18.282Z,84.40
2022-07-29T10:16:47.183Z,83.20
2022-07-29T10:19:15.744Z,85.60
2022-07-29T10:21:45.683Z,84.50
2022-07-29T10:24:14.714Z,84.30
2022-07-29T10:27:03.062Z,84.30
2022-07-29T10:29:32.676Z,84.70
2022-07-29T10:32:20.983Z,84.40
2022-07-29T10:34:59.303Z,84.20
2022-07-29T10:37:45.960Z,84.40
2022-07-29T10:40:41.234Z,84.70
2022-07-29T10:43:18.312Z,85.30
2022-07-29T10:45:48.962Z,85.70
2022-07-29T10:48:18.265Z,85.20
2022-07-29T10:51:00.166Z,85.30
2022-07-29T10:53:49.425Z,85.20
2022-07-29T10:56:27.269Z,85.10
2022-07-29T10:59:07.255Z,84.10
2022-07-29T11:01:39.043Z,84.90
2022-07-29T11:04:06.879Z,85.40
2022-07-29T11:06:48.900Z,85.50
2022-07-29T11:09:20.463Z,86.00
2022-07-29T11:11:55.464Z,86.10
2022-07-29T11:14:42.746Z,86.30
2022-07-29T11:17:14.046Z,86.50
2022-07-29T11:19:46.772Z,86.40
2022-07-29T11:22:31.111Z,86.60
2022-07-29T11:25:11.803Z,86.60
2022-07-29T11:27:41.788Z,86.70
2022-07-29T11:30:11.757Z,86.80
2022-07-29T11:32:41.054Z,87.00
2022-07-29T11:35:36.820Z,87.20
2022-07-29T11:38:18.562Z,87.40
2022-07-29T11:41:08.533Z,87.80
2022-07-29T11:46:49.316Z,88.00
2022-07-29T11:52:24.877Z,88.40
2022-07-29T11:58:04.089Z,88.80
2022-07-29T12:20:46.682Z,90.30
2022-07-29T12:29:02.362Z,90.70
2022-07-29T12:31:42.240Z,90.80
2022-07-29T12:34:14.527Z,90.90
2022-07-29T12:36:47.691Z,90.90
2022-07-29T12:39:22.088Z,91.10
2022-07-29T12:41:50.938Z,91.00
2022-07-29T12:44:27.736Z,91.10
2022-07-29T12:47:06.083Z,91.20
2022-07-29T12:52:37.182Z,91.30
2022-07-29T12:55:09.847Z,91.30
2022-07-29T12:58:00.163Z,91.20
2022-07-29T13:08:41.723Z,91.20
2022-07-29T13:11:10.796Z,91.30
2022-07-29T13:14:06.584Z,91.40
2022-07-29T13:16:36.007Z,91.50
2022-07-29T13:19:23.355Z,91.50
2022-07-29T13:21:57.190Z,91.50
2022-07-29T13:24:33.252Z,91.50
2022-07-29T13:27:17.178Z,91.50
2022-07-29T13:38:03.744Z,91.50
2022-07-29T13:46:01.044Z,91.60
2022-07-29T13:51:17.640Z,91.60
2022-07-29T13:53:56.712Z,91.70
2022-07-29T13:56:35.419Z,92.00
2022-07-29T13:59:05.046Z,91.60
2022-07-29T14:01:59.531Z,91.60
2022-07-29T14:07:16.450Z,91.60
2022-07-29T14:12:32.869Z,91.60
2022-07-29T14:15:08.851Z,91.60
2022-07-29T14:23:09.435Z,91.60
2022-07-29T14:25:52.291Z,91.70
2022-07-29T14:28:28.537Z,91.70
2022-07-29T14:30:58.792Z,91.80
2022-07-29T14:33:49.120Z,91.90
2022-07-29T14:36:32.498Z,91.90
2022-07-29T14:39:00.261Z,92.00
2022-07-29T14:41:30.397Z,92.00
2022-07-29T14:43:59.381Z,92.10
2022-07-29T14:46:28.102Z,92.60
2022-07-29T14:48:55.994Z,92.10
2022-07-29T14:51:24.610Z,92.00
2022-07-29T14:54:00.540Z,92.40
2022-07-29T14:56:37.525Z,92.50
2022-07-29T14:59:06.157Z,92.60
2022-07-29T15:01:33.925Z,92.70
2022-07-29T15:04:01.673Z,92.70
2022-07-29T15:06:29.508Z,93.10
2022-07-29T15:08:57.203Z,93.00
2022-07-29T15:11:24.969Z,93.20
2022-07-29T15:13:53.564Z,93.50
2022-07-29T15:16:21.241Z,93.40
2022-07-29T15:18:49.005Z,93.40
2022-07-29T15:21:18.495Z,93.40
2022-07-29T15:23:46.328Z,93.30
2022-07-29T15:26:14.000Z,93.50
2022-07-29T15:28:41.683Z,93.80
2022-07-29T15:31:10.527Z,93.80
2022-07-29T15:33:38.139Z,93.90
2022-07-29T15:36:06.084Z,94.10
2022-07-29T15:38:34.421Z,94.10
2022-07-29T15:41:02.358Z,94.00
2022-07-29T15:43:30.842Z,94.20
2022-07-29T15:46:10.864Z,94.30
2022-07-29T15:48:42.564Z,94.40
2022-07-29T15:51:10.600Z,94.60
2022-07-29T15:53:38.576Z,94.50
2022-07-29T15:56:06.385Z,94.40
2022-07-29T15:58:34.067Z,94.50
2022-07-29T16:01:01.893Z,94.50
2022-07-29T16:03:29.835Z,94.70
2022-07-29T16:05:57.633Z,94.80
2022-07-29T16:08:26.295Z,95.00
2022-07-29T16:10:54.087Z,95.10
2022-07-29T16:13:22.958Z,95.10
2022-07-29T16:16:02.210Z,95.30
2022-07-29T16:18:31.251Z,95.30
2022-07-29T16:20:58.985Z,95.30
2022-07-29T16:23:27.517Z,95.60
2022-07-29T16:26:02.584Z,95.50
2022-07-29T16:28:31.113Z,95.50
2022-07-29T16:30:58.962Z,95.50
2022-07-29T16:33:26.725Z,95.50
2022-07-29T16:35:54.478Z,95.50
2022-07-29T16:38:23.143Z,95.30
2022-07-29T16:40:51.388Z,95.50
2022-07-29T16:43:20.218Z,95.60
2022-07-29T16:45:48.051Z,95.70
2022-07-29T16:48:18.012Z,95.70
2022-07-29T16:50:46.659Z,95.60
2022-07-29T16:53:14.337Z,95.60
2022-07-29T16:55:42.710Z,95.80
2022-07-29T16:58:10.823Z,95.80
2022-07-29T17:00:39.029Z,95.90
2022-07-29T17:03:06.895Z,96.10
2022-07-29T17:05:52.392Z,96.10
2022-07-29T17:08:22.313Z,96.10
2022-07-29T17:10:50.187Z,96.30
2022-07-29T17:13:17.931Z,96.10
2022-07-29T17:15:46.510Z,96.10
2022-07-29T17:18:14.263Z,96.40
2022-07-29T17:20:42.413Z,96.40
2022-07-29T17:23:10.942Z,96.40
2022-07-29T17:25:38.709Z,96.50
2022-07-29T17:28:06.465Z,96.90
2022-07-29T17:30:34.166Z,96.80
2022-07-29T17:33:01.942Z,96.50
2022-07-29T17:35:42.253Z,96.50
2022-07-29T17:38:10.818Z,96.60
2022-07-29T17:40:38.463Z,96.50
2022-07-29T17:43:09.630Z,96.20
2022-07-29T17:45:50.430Z,96.50
2022-07-29T17:48:19.246Z,96.60
2022-07-29T17:50:47.736Z,96.00
2022-07-29T17:53:16.602Z,96.40
2022-07-29T17:55:50.080Z,96.40
2022-07-29T17:58:18.919Z,96.60
2022-07-29T18:00:46.636Z,96.70
2022-07-29T18:03:14.781Z,96.80
2022-07-29T18:05:43.106Z,96.60
2022-07-29T18:08:11.203Z,96.60
2022-07-29T18:10:39.017Z,96.60
2022-07-29T18:13:06.693Z,96.50
2022-07-29T18:15:34.733Z,96.80
2022-07-29T18:18:02.568Z,96.70
2022-07-29T18:20:30.353Z,96.40
2022-07-29T18:22:58.193Z,96.80
2022-07-29T18:25:26.967Z,96.80
2022-07-29T18:28:00.139Z,97.00
2022-07-29T18:30:30.115Z,97.10
2022-07-29T18:33:20.139Z,97.00
2022-07-29T18:35:47.769Z,97.40
2022-07-29T18:38:18.051Z,97.10
2022-07-29T18:40:46.295Z,97.00
2022-07-29T18:43:14.271Z,97.10
2022-07-29T18:45:42.377Z,97.00
2022-07-29T18:48:13.268Z,96.80
2022-07-29T18:50:42.196Z,96.80
2022-07-29T18:53:10.311Z,97.00
2022-07-29T18:55:38.969Z,97.00
2022-07-29T18:58:06.655Z,97.00
2022-07-29T19:00:34.405Z,96.80
2022-07-29T19:03:03.925Z,96.90
2022-07-29T19:05:31.681Z,97.10
2022-07-29T19:07:59.395Z,97.10
2022-07-29T19:10:27.488Z,96.90
2022-07-29T19:12:55.583Z,96.90
2022-07-29T19:15:23.356Z,96.80
2022-07-29T19:17:52.085Z,96.90
2022-07-29T19:20:19.858Z,96.90
2022-07-29T19:22:47.559Z,96.50
2022-07-29T19:25:15.448Z,96.50
2022-07-29T19:27:43.108Z,96.60
2022-07-29T19:30:10.979Z,96.90
2022-07-29T19:32:39.183Z,96.80
2022-07-29T19:35:19.288Z,96.90
2022-07-29T19:37:47.091Z,97.00
2022-07-29T19:40:16.510Z,96.90
2022-07-29T19:42:44.636Z,96.80
2022-07-29T19:45:12.708Z,96.90
2022-07-29T19:47:40.568Z,97.10
2022-07-29T19:50:09.487Z,96.90
2022-07-29T19:52:37.337Z,97.00
2022-07-29T19:55:07.842Z,97.00
2022-07-29T19:57:40.885Z,97.10
2022-07-29T20:00:11.273Z,96.90
2022-07-29T20:02:40.561Z,96.90
2022-07-29T20:05:08.816Z,97.40
2022-07-29T20:07:37.675Z,97.10
2022-07-29T20:10:06.336Z,97.20
2022-07-29T20:12:34.137Z,97.30
2022-07-29T20:15:02.011Z,97.30
2022-07-29T20:17:29.771Z,97.40
2022-07-29T20:20:01.111Z,97.30
2022-07-29T20:22:28.924Z,97.40
2022-07-29T20:24:56.666Z,97.40
2022-07-29T20:27:24.291Z,97.50
2022-07-29T20:29:52.065Z,97.50
2022-07-29T20:32:19.771Z,97.60
2022-07-29T20:34:47.635Z,97.60
2022-07-29T20:37:17.249Z,97.80
2022-07-29T20:39:48.047Z,97.70
2022-07-29T20:42:16.521Z,97.80
2022-07-29T20:44:44.418Z,97.80
2022-07-29T20:47:12.007Z,97.70
2022-07-29T20:49:39.764Z,97.90
2022-07-29T20:52:08.420Z,97.60
2022-07-29T20:54:36.034Z,97.60
2022-07-29T20:57:03.706Z,97.60
2022-07-29T20:59:31.573Z,97.60
2022-07-29T21:01:59.290Z,97.40
2022-07-29T21:04:30.608Z,97.50
2022-07-29T21:06:59.135Z,97.60
2022-07-29T21:09:26.896Z,97.90
2022-07-29T21:11:54.629Z,97.80
2022-07-29T21:14:34.611Z,97.60
2022-07-29T21:17:05.658Z,97.50
2022-07-29T21:19:33.626Z,97.60
2022-07-29T21:22:01.649Z,97.70
2022-07-29T21:24:29.519Z,97.60
2022-07-29T21:27:21.553Z,97.60
2022-07-29T21:29:50.038Z,97.70
2022-07-29T21:32:29.589Z,97.70
2022-07-29T21:34:58.711Z,97.70
2022-07-29T21:37:26.407Z,97.90
2022-07-29T21:39:54.065Z,98.10
2022-07-29T21:42:21.721Z,98.10
2022-07-29T21:44:50.276Z,98.10
2022-07-29T21:47:17.986Z,98.10
2022-07-29T21:49:47.599Z,98.20
2022-07-29T21:52:18.435Z,98.20
2022-07-29T21:54:46.068Z,98.20
2022-07-29T21:57:16.871Z,98.10
2022-07-29T21:59:45.630Z,98.20
2022-07-29T22:02:13.315Z,97.90
2022-07-29T22:04:41.094Z,98.10
2022-07-29T22:07:08.900Z,98.30
2022-07-29T22:09:36.642Z,98.40
2022-07-29T22:12:04.405Z,98.40
2022-07-29T22:14:32.326Z,98.50
2022-07-29T22:17:00.680Z,98.60
2022-07-29T22:19:29.966Z,98.90
2022-07-29T22:21:58.953Z,98.80
2022-07-29T22:24:26.606Z,98.60
2022-07-29T22:26:55.167Z,98.80
2022-07-29T22:29:23.119Z,98.90
2022-07-29T22:31:50.724Z,98.90
2022-07-29T22:34:19.263Z,99.10
2022-07-29T22:36:47.039Z,99.10
2022-07-29T22:39:15.659Z,99.20
2022-07-29T22:41:44.009Z,99.40
2022-07-29T22:44:11.750Z,99.10
2022-07-29T22:46:39.455Z,99.40
2022-07-29T22:49:07.215Z,99.50
2022-07-29T22:51:35.942Z,99.20
2022-07-29T22:54:04.575Z,98.90
2022-07-29T22:56:33.245Z,99.00
2022-07-29T22:59:01.838Z,99.00
2022-07-29T23:01:37.268Z,98.80
2022-07-29T23:04:06.664Z,99.00
2022-07-29T23:06:34.894Z,99.40
2022-07-29T23:09:02.563Z,99.60
2022-07-29T23:11:30.318Z,99.60
2022-07-29T23:13:58.020Z,99.60
2022-07-29T23:16:26.583Z,99.60
2022-07-29T23:18:55.093Z,99.60
2022-07-29T23:21:23.481Z,99.50
2022-07-29T23:23:52.094Z,99.50
2022-07-29T23:26:19.754Z,99.30
2022-07-29T23:28:47.547Z,99.40
2022-07-29T23:31:15.466Z,99.60
2022-07-29T23:33:43.228Z,99.70
2022-07-29T23:36:11.665Z,99.50
2022-07-29T23:38:41.243Z,99.40
2022-07-29T23:41:10.863Z,99.70
2022-07-29T23:43:38.604Z,99.90
2022-07-29T23:46:07.332Z,99.80
2022-07-29T23:48:36.166Z,99.80
2022-07-29T23:51:04.066Z,99.90
2022-07-29T23:53:31.771Z,99.80
2022-07-29T23:55:59.775Z,99.80
2022-07-29T23:58:27.400Z,99.80
